sensor_id;sensor_type;location;lat;lon;timestamp;P1;durP1;ratioP1;P2;durP2;ratioP2
71154;SDS011;59375;53.216;5.728;2022-09-29T00:02:10;3.50;;;2.25;;
71154;SDS011;59375;53.216;5.728;2022-09-29T00:04:36;4.57;;;3.10;;
71154;SDS011;59375;53.216;5.728;2022-09-29T00:07:01;5.75;;;3.00;;
71154;SDS011;59375;53.216;5.728;2022-09-29T00:09:27;4.32;;;3.08;;
71154;SDS011;59375;53.216;5.728;2022-09-29T00:11:53;4.40;;;3.10;;
71154;SDS011;59375;53.216;5.728;2022-09-29T00:14:19;5.35;;;3.13;;
71154;SDS011;59375;53.216;5.728;2022-09-29T00:16:46;5.32;;;3.17;;
71154;SDS011;59375;53.216;5.728;2022-09-29T00:19:12;4.78;;;3.40;;
71154;SDS011;59375;53.216;5.728;2022-09-29T00:21:37;4.95;;;3.60;;
71154;SDS011;59375;53.216;5.728;2022-09-29T00:24:03;6.07;;;3.40;;
71154;SDS011;59375;53.216;5.728;2022-09-29T00:26:28;5.40;;;3.63;;
71154;SDS011;59375;53.216;5.728;2022-09-29T00:28:55;5.88;;;3.95;;
71154;SDS011;59375;53.216;5.728;2022-09-29T00:31:23;5.22;;;3.65;;
71154;SDS011;59375;53.216;5.728;2022-09-29T00:33:50;5.18;;;3.75;;
71154;SDS011;59375;53.216;5.728;2022-09-29T00:36:17;5.13;;;3.70;;
71154;SDS011;59375;53.216;5.728;2022-09-29T00:38:44;4.95;;;3.50;;
71154;SDS011;59375;53.216;5.728;2022-09-29T00:41:18;5.15;;;3.60;;
71154;SDS011;59375;53.216;5.728;2022-09-29T00:43:55;5.35;;;3.33;;
71154;SDS011;59375;53.216;5.728;2022-09-29T00:49:22;5.40;;;3.40;;
71154;SDS011;59375;53.216;5.728;2022-09-29T00:52:10;5.50;;;3.60;;
71154;SDS011;59375;53.216;5.728;2022-09-29T00:54:41;9.23;;;3.80;;
71154;SDS011;59375;53.216;5.728;2022-09-29T00:57:20;9.25;;;3.45;;
71154;SDS011;59375;53.216;5.728;2022-09-29T00:59:55;7.45;;;3.45;;
71154;SDS011;59375;53.216;5.728;2022-09-29T01:02:34;5.90;;;3.88;;
71154;SDS011;59375;53.216;5.728;2022-09-29T01:05:04;5.13;;;3.40;;
71154;SDS011;59375;53.216;5.728;2022-09-29T01:07:32;5.40;;;3.70;;
71154;SDS011;59375;53.216;5.728;2022-09-29T01:09:58;4.70;;;3.15;;
71154;SDS011;59375;53.216;5.728;2022-09-29T01:12:24;6.28;;;3.20;;
71154;SDS011;59375;53.216;5.728;2022-09-29T01:14:50;4.47;;;2.95;;
71154;SDS011;59375;53.216;5.728;2022-09-29T01:17:17;11.68;;;3.53;;
71154;SDS011;59375;53.216;5.728;2022-09-29T01:27:48;4.40;;;3.10;;
71154;SDS011;59375;53.216;5.728;2022-09-29T01:39:12;4.57;;;3.20;;
71154;SDS011;59375;53.216;5.728;2022-09-29T01:44:28;5.07;;;3.38;;
71154;SDS011;59375;53.216;5.728;2022-09-29T01:46:59;5.43;;;3.50;;
71154;SDS011;59375;53.216;5.728;2022-09-29T01:49:30;4.63;;;3.17;;
71154;SDS011;59375;53.216;5.728;2022-09-29T01:52:02;5.00;;;3.40;;
71154;SDS011;59375;53.216;5.728;2022-09-29T01:57:08;4.55;;;3.05;;
71154;SDS011;59375;53.216;5.728;2022-09-29T01:59:43;4.65;;;3.30;;
71154;SDS011;59375;53.216;5.728;2022-09-29T02:02:17;4.45;;;3.00;;
71154;SDS011;59375;53.216;5.728;2022-09-29T02:04:53;7.22;;;3.05;;
71154;SDS011;59375;53.216;5.728;2022-09-29T02:07:35;11.55;;;3.15;;
71154;SDS011;59375;53.216;5.728;2022-09-29T02:10:05;4.68;;;2.88;;
71154;SDS011;59375;53.216;5.728;2022-09-29T02:12:36;5.22;;;3.40;;
71154;SDS011;59375;53.216;5.728;2022-09-29T02:15:03;5.03;;;3.25;;
71154;SDS011;59375;53.216;5.728;2022-09-29T02:17:35;5.60;;;3.10;;
71154;SDS011;59375;53.216;5.728;2022-09-29T02:20:04;4.35;;;3.13;;
71154;SDS011;59375;53.216;5.728;2022-09-29T02:22:30;4.88;;;3.25;;
71154;SDS011;59375;53.216;5.728;2022-09-29T02:24:57;5.00;;;3.40;;
71154;SDS011;59375;53.216;5.728;2022-09-29T02:27:23;4.47;;;3.03;;
71154;SDS011;59375;53.216;5.728;2022-09-29T02:29:51;5.43;;;3.13;;
71154;SDS011;59375;53.216;5.728;2022-09-29T02:32:17;4.47;;;2.92;;
71154;SDS011;59375;53.216;5.728;2022-09-29T02:34:44;4.68;;;3.03;;
71154;SDS011;59375;53.216;5.728;2022-09-29T02:37:17;4.20;;;3.10;;
71154;SDS011;59375;53.216;5.728;2022-09-29T02:39:54;8.07;;;3.35;;
71154;SDS011;59375;53.216;5.728;2022-09-29T02:42:29;4.22;;;2.88;;
71154;SDS011;59375;53.216;5.728;2022-09-29T02:45:12;5.05;;;3.10;;
71154;SDS011;59375;53.216;5.728;2022-09-29T02:47:48;4.95;;;3.10;;
71154;SDS011;59375;53.216;5.728;2022-09-29T02:58:46;4.80;;;3.40;;
71154;SDS011;59375;53.216;5.728;2022-09-29T03:01:25;5.25;;;3.30;;
71154;SDS011;59375;53.216;5.728;2022-09-29T03:03:55;5.90;;;3.30;;
71154;SDS011;59375;53.216;5.728;2022-09-29T03:06:20;5.38;;;3.20;;
71154;SDS011;59375;53.216;5.728;2022-09-29T03:08:46;6.03;;;3.25;;
71154;SDS011;59375;53.216;5.728;2022-09-29T03:11:12;5.68;;;3.70;;
71154;SDS011;59375;53.216;5.728;2022-09-29T03:13:37;4.90;;;3.30;;
71154;SDS011;59375;53.216;5.728;2022-09-29T03:16:03;5.75;;;3.38;;
71154;SDS011;59375;53.216;5.728;2022-09-29T03:18:28;5.50;;;3.50;;
71154;SDS011;59375;53.216;5.728;2022-09-29T03:20:54;4.88;;;3.22;;
71154;SDS011;59375;53.216;5.728;2022-09-29T03:23:20;4.72;;;3.30;;
71154;SDS011;59375;53.216;5.728;2022-09-29T03:25:45;5.30;;;3.50;;
71154;SDS011;59375;53.216;5.728;2022-09-29T03:28:11;5.03;;;3.30;;
71154;SDS011;59375;53.216;5.728;2022-09-29T03:30:37;5.32;;;3.38;;
71154;SDS011;59375;53.216;5.728;2022-09-29T03:33:03;4.80;;;2.13;;
71154;SDS011;59375;53.216;5.728;2022-09-29T03:35:29;3.40;;;2.20;;
71154;SDS011;59375;53.216;5.728;2022-09-29T03:37:59;3.20;;;2.00;;
71154;SDS011;59375;53.216;5.728;2022-09-29T03:40:25;4.93;;;3.05;;
71154;SDS011;59375;53.216;5.728;2022-09-29T03:42:51;5.53;;;3.50;;
71154;SDS011;59375;53.216;5.728;2022-09-29T03:45:17;4.32;;;2.92;;
71154;SDS011;59375;53.216;5.728;2022-09-29T03:47:42;4.65;;;3.13;;
71154;SDS011;59375;53.216;5.728;2022-09-29T03:50:08;5.13;;;3.10;;
71154;SDS011;59375;53.216;5.728;2022-09-29T03:52:35;4.70;;;3.20;;
71154;SDS011;59375;53.216;5.728;2022-09-29T03:55:00;6.97;;;3.33;;
71154;SDS011;59375;53.216;5.728;2022-09-29T03:57:26;5.13;;;3.22;;
71154;SDS011;59375;53.216;5.728;2022-09-29T03:59:51;5.00;;;3.28;;
71154;SDS011;59375;53.216;5.728;2022-09-29T04:02:17;4.68;;;3.00;;
71154;SDS011;59375;53.216;5.728;2022-09-29T04:04:43;6.10;;;4.00;;
71154;SDS011;59375;53.216;5.728;2022-09-29T04:07:09;5.78;;;3.47;;
71154;SDS011;59375;53.216;5.728;2022-09-29T04:09:35;6.00;;;3.53;;
71154;SDS011;59375;53.216;5.728;2022-09-29T04:12:02;4.72;;;3.33;;
71154;SDS011;59375;53.216;5.728;2022-09-29T04:14:28;4.75;;;3.28;;
71154;SDS011;59375;53.216;5.728;2022-09-29T04:16:53;4.10;;;2.95;;
71154;SDS011;59375;53.216;5.728;2022-09-29T04:19:19;5.43;;;3.03;;
71154;SDS011;59375;53.216;5.728;2022-09-29T04:21:44;5.13;;;3.30;;
71154;SDS011;59375;53.216;5.728;2022-09-29T04:24:10;4.80;;;3.40;;
71154;SDS011;59375;53.216;5.728;2022-09-29T04:26:36;4.72;;;2.88;;
71154;SDS011;59375;53.216;5.728;2022-09-29T04:29:02;5.65;;;3.33;;
71154;SDS011;59375;53.216;5.728;2022-09-29T04:31:27;5.63;;;3.60;;
71154;SDS011;59375;53.216;5.728;2022-09-29T04:33:53;6.18;;;3.53;;
71154;SDS011;59375;53.216;5.728;2022-09-29T04:36:18;6.25;;;3.47;;
71154;SDS011;59375;53.216;5.728;2022-09-29T04:38:44;8.63;;;3.58;;
71154;SDS011;59375;53.216;5.728;2022-09-29T04:41:09;8.77;;;3.65;;
71154;SDS011;59375;53.216;5.728;2022-09-29T04:43:35;14.43;;;4.43;;
71154;SDS011;59375;53.216;5.728;2022-09-29T04:46:04;16.23;;;4.05;;
71154;SDS011;59375;53.216;5.728;2022-09-29T04:48:31;9.65;;;3.72;;
71154;SDS011;59375;53.216;5.728;2022-09-29T04:50:58;14.40;;;3.80;;
71154;SDS011;59375;53.216;5.728;2022-09-29T04:53:23;16.25;;;3.78;;
71154;SDS011;59375;53.216;5.728;2022-09-29T04:55:49;29.98;;;4.32;;
71154;SDS011;59375;53.216;5.728;2022-09-29T04:58:15;9.50;;;4.53;;
71154;SDS011;59375;53.216;5.728;2022-09-29T05:00:40;17.42;;;4.57;;
71154;SDS011;59375;53.216;5.728;2022-09-29T05:03:06;22.65;;;4.80;;
71154;SDS011;59375;53.216;5.728;2022-09-29T05:05:31;17.88;;;5.35;;
71154;SDS011;59375;53.216;5.728;2022-09-29T05:07:57;12.40;;;5.30;;
71154;SDS011;59375;53.216;5.728;2022-09-29T05:10:23;42.85;;;5.72;;
71154;SDS011;59375;53.216;5.728;2022-09-29T05:12:49;9.93;;;4.07;;
71154;SDS011;59375;53.216;5.728;2022-09-29T05:15:16;24.15;;;4.80;;
71154;SDS011;59375;53.216;5.728;2022-09-29T05:17:42;16.42;;;4.53;;
71154;SDS011;59375;53.216;5.728;2022-09-29T05:20:08;24.60;;;4.07;;
71154;SDS011;59375;53.216;5.728;2022-09-29T05:22:35;24.58;;;4.03;;
71154;SDS011;59375;53.216;5.728;2022-09-29T05:25:00;28.50;;;5.03;;
71154;SDS011;59375;53.216;5.728;2022-09-29T05:27:26;116.07;;;6.85;;
71154;SDS011;59375;53.216;5.728;2022-09-29T05:29:52;70.28;;;6.28;;
71154;SDS011;59375;53.216;5.728;2022-09-29T05:32:17;42.53;;;5.15;;
71154;SDS011;59375;53.216;5.728;2022-09-29T05:34:43;30.02;;;5.18;;
71154;SDS011;59375;53.216;5.728;2022-09-29T05:37:09;60.92;;;6.65;;
71154;SDS011;59375;53.216;5.728;2022-09-29T05:39:34;60.58;;;5.90;;
71154;SDS011;59375;53.216;5.728;2022-09-29T05:42:01;61.88;;;6.38;;
71154;SDS011;59375;53.216;5.728;2022-09-29T05:44:34;39.27;;;5.80;;
71154;SDS011;59375;53.216;5.728;2022-09-29T05:46:59;40.80;;;5.75;;
71154;SDS011;59375;53.216;5.728;2022-09-29T05:49:25;66.38;;;6.40;;
71154;SDS011;59375;53.216;5.728;2022-09-29T05:51:50;65.57;;;6.50;;
71154;SDS011;59375;53.216;5.728;2022-09-29T05:54:16;102.13;;;6.50;;
71154;SDS011;59375;53.216;5.728;2022-09-29T05:56:41;73.82;;;6.53;;
71154;SDS011;59375;53.216;5.728;2022-09-29T05:59:08;59.22;;;5.90;;
71154;SDS011;59375;53.216;5.728;2022-09-29T06:01:34;73.57;;;6.32;;
71154;SDS011;59375;53.216;5.728;2022-09-29T06:03:59;96.80;;;7.05;;
71154;SDS011;59375;53.216;5.728;2022-09-29T06:06:26;83.10;;;6.40;;
71154;SDS011;59375;53.216;5.728;2022-09-29T06:08:52;40.15;;;5.05;;
71154;SDS011;59375;53.216;5.728;2022-09-29T06:11:19;27.40;;;5.35;;
71154;SDS011;59375;53.216;5.728;2022-09-29T06:13:47;23.52;;;4.80;;
71154;SDS011;59375;53.216;5.728;2022-09-29T06:16:15;15.00;;;4.82;;
71154;SDS011;59375;53.216;5.728;2022-09-29T06:18:43;19.88;;;5.45;;
71154;SDS011;59375;53.216;5.728;2022-09-29T06:21:10;21.20;;;5.53;;
71154;SDS011;59375;53.216;5.728;2022-09-29T06:23:38;22.52;;;6.00;;
71154;SDS011;59375;53.216;5.728;2022-09-29T06:26:06;24.83;;;5.85;;
71154;SDS011;59375;53.216;5.728;2022-09-29T06:28:34;88.50;;;7.60;;
71154;SDS011;59375;53.216;5.728;2022-09-29T06:31:00;33.15;;;6.15;;
71154;SDS011;59375;53.216;5.728;2022-09-29T06:33:29;15.95;;;5.93;;
71154;SDS011;59375;53.216;5.728;2022-09-29T06:35:56;25.02;;;6.03;;
71154;SDS011;59375;53.216;5.728;2022-09-29T06:38:41;14.65;;;5.93;;
71154;SDS011;59375;53.216;5.728;2022-09-29T06:41:06;9.45;;;5.57;;
71154;SDS011;59375;53.216;5.728;2022-09-29T06:43:32;21.95;;;6.10;;
71154;SDS011;59375;53.216;5.728;2022-09-29T06:45:59;16.88;;;5.88;;
71154;SDS011;59375;53.216;5.728;2022-09-29T06:48:24;24.45;;;5.80;;
71154;SDS011;59375;53.216;5.728;2022-09-29T06:50:50;13.60;;;5.68;;
71154;SDS011;59375;53.216;5.728;2022-09-29T06:53:16;15.57;;;5.82;;
71154;SDS011;59375;53.216;5.728;2022-09-29T06:55:41;12.93;;;6.30;;
71154;SDS011;59375;53.216;5.728;2022-09-29T06:58:07;14.52;;;6.40;;
71154;SDS011;59375;53.216;5.728;2022-09-29T07:00:33;12.35;;;5.90;;
71154;SDS011;59375;53.216;5.728;2022-09-29T07:02:58;15.27;;;6.70;;
71154;SDS011;59375;53.216;5.728;2022-09-29T07:05:25;11.27;;;6.40;;
71154;SDS011;59375;53.216;5.728;2022-09-29T07:07:50;12.13;;;6.70;;
71154;SDS011;59375;53.216;5.728;2022-09-29T07:10:16;14.15;;;7.30;;
71154;SDS011;59375;53.216;5.728;2022-09-29T07:12:41;16.55;;;6.80;;
71154;SDS011;59375;53.216;5.728;2022-09-29T07:15:10;14.38;;;6.97;;
71154;SDS011;59375;53.216;5.728;2022-09-29T07:17:36;10.43;;;6.57;;
71154;SDS011;59375;53.216;5.728;2022-09-29T07:20:02;11.20;;;6.65;;
71154;SDS011;59375;53.216;5.728;2022-09-29T07:22:28;8.57;;;6.47;;
71154;SDS011;59375;53.216;5.728;2022-09-29T07:24:53;13.02;;;6.72;;
71154;SDS011;59375;53.216;5.728;2022-09-29T07:27:19;10.50;;;6.93;;
71154;SDS011;59375;53.216;5.728;2022-09-29T07:29:48;8.30;;;6.10;;
71154;SDS011;59375;53.216;5.728;2022-09-29T07:32:17;9.60;;;5.82;;
71154;SDS011;59375;53.216;5.728;2022-09-29T07:34:43;7.95;;;6.00;;
71154;SDS011;59375;53.216;5.728;2022-09-29T07:37:09;15.25;;;6.70;;
71154;SDS011;59375;53.216;5.728;2022-09-29T07:39:35;12.38;;;6.53;;
71154;SDS011;59375;53.216;5.728;2022-09-29T07:42:01;10.40;;;6.55;;
71154;SDS011;59375;53.216;5.728;2022-09-29T07:44:27;11.15;;;7.00;;
71154;SDS011;59375;53.216;5.728;2022-09-29T07:46:54;8.75;;;6.75;;
71154;SDS011;59375;53.216;5.728;2022-09-29T07:49:20;10.30;;;6.70;;
71154;SDS011;59375;53.216;5.728;2022-09-29T07:51:45;10.48;;;6.53;;
71154;SDS011;59375;53.216;5.728;2022-09-29T07:54:11;10.23;;;6.30;;
71154;SDS011;59375;53.216;5.728;2022-09-29T07:56:37;10.07;;;6.90;;
71154;SDS011;59375;53.216;5.728;2022-09-29T07:59:03;11.48;;;6.93;;
71154;SDS011;59375;53.216;5.728;2022-09-29T08:01:29;9.77;;;7.82;;
71154;SDS011;59375;53.216;5.728;2022-09-29T08:03:55;12.73;;;7.78;;
71154;SDS011;59375;53.216;5.728;2022-09-29T08:06:22;12.07;;;8.40;;
71154;SDS011;59375;53.216;5.728;2022-09-29T08:08:48;11.90;;;8.60;;
71154;SDS011;59375;53.216;5.728;2022-09-29T08:11:15;10.40;;;8.75;;
71154;SDS011;59375;53.216;5.728;2022-09-29T08:13:44;10.80;;;9.00;;
71154;SDS011;59375;53.216;5.728;2022-09-29T08:16:11;14.13;;;9.48;;
71154;SDS011;59375;53.216;5.728;2022-09-29T08:18:38;14.15;;;9.32;;
71154;SDS011;59375;53.216;5.728;2022-09-29T08:21:04;11.70;;;9.35;;
71154;SDS011;59375;53.216;5.728;2022-09-29T08:23:33;11.75;;;9.30;;
71154;SDS011;59375;53.216;5.728;2022-09-29T08:26:07;12.52;;;9.48;;
71154;SDS011;59375;53.216;5.728;2022-09-29T08:28:42;12.68;;;9.93;;
71154;SDS011;59375;53.216;5.728;2022-09-29T08:31:09;12.93;;;10.20;;
71154;SDS011;59375;53.216;5.728;2022-09-29T08:33:35;13.60;;;10.15;;
71154;SDS011;59375;53.216;5.728;2022-09-29T08:36:02;13.30;;;10.45;;
71154;SDS011;59375;53.216;5.728;2022-09-29T08:38:30;12.68;;;10.50;;
71154;SDS011;59375;53.216;5.728;2022-09-29T08:40:56;13.60;;;10.52;;
71154;SDS011;59375;53.216;5.728;2022-09-29T08:46:01;13.65;;;10.52;;
71154;SDS011;59375;53.216;5.728;2022-09-29T08:48:32;14.38;;;10.55;;
71154;SDS011;59375;53.216;5.728;2022-09-29T08:51:04;12.52;;;9.38;;
71154;SDS011;59375;53.216;5.728;2022-09-29T08:53:34;11.57;;;9.15;;
71154;SDS011;59375;53.216;5.728;2022-09-29T08:56:14;12.00;;;9.05;;
71154;SDS011;59375;53.216;5.728;2022-09-29T08:58:42;12.50;;;9.68;;
71154;SDS011;59375;53.216;5.728;2022-09-29T09:01:18;11.13;;;9.00;;
71154;SDS011;59375;53.216;5.728;2022-09-29T09:09:47;12.77;;;8.48;;
71154;SDS011;59375;53.216;5.728;2022-09-29T09:16:01;10.77;;;7.75;;
71154;SDS011;59375;53.216;5.728;2022-09-29T09:18:37;10.05;;;7.43;;
71154;SDS011;59375;53.216;5.728;2022-09-29T09:21:09;10.18;;;7.30;;
71154;SDS011;59375;53.216;5.728;2022-09-29T09:26:54;10.25;;;7.60;;
71154;SDS011;59375;53.216;5.728;2022-09-29T09:29:15;8.07;;;6.20;;
71154;SDS011;59375;53.216;5.728;2022-09-29T09:31:56;8.60;;;6.28;;
71154;SDS011;59375;53.216;5.728;2022-09-29T09:34:29;6.93;;;5.03;;
71154;SDS011;59375;53.216;5.728;2022-09-29T09:37:17;8.75;;;5.60;;
71154;SDS011;59375;53.216;5.728;2022-09-29T09:40:00;7.85;;;5.60;;
71154;SDS011;59375;53.216;5.728;2022-09-29T09:42:31;8.02;;;5.70;;
71154;SDS011;59375;53.216;5.728;2022-09-29T09:45:05;9.90;;;6.03;;
71154;SDS011;59375;53.216;5.728;2022-09-29T09:47:45;7.30;;;4.50;;
71154;SDS011;59375;53.216;5.728;2022-09-29T09:50:18;7.22;;;4.95;;
71154;SDS011;59375;53.216;5.728;2022-09-29T09:52:47;7.05;;;4.47;;
71154;SDS011;59375;53.216;5.728;2022-09-29T09:55:24;6.82;;;4.57;;
71154;SDS011;59375;53.216;5.728;2022-09-29T10:00:47;7.65;;;4.75;;
71154;SDS011;59375;53.216;5.728;2022-09-29T10:03:17;8.77;;;4.53;;
71154;SDS011;59375;53.216;5.728;2022-09-29T10:05:43;6.90;;;4.38;;
71154;SDS011;59375;53.216;5.728;2022-09-29T10:10:53;6.38;;;4.10;;
71154;SDS011;59375;53.216;5.728;2022-09-29T10:13:20;5.72;;;3.63;;
71154;SDS011;59375;53.216;5.728;2022-09-29T10:16:11;7.75;;;5.13;;
71154;SDS011;59375;53.216;5.728;2022-09-29T10:21:33;7.28;;;4.75;;
71154;SDS011;59375;53.216;5.728;2022-09-29T10:24:00;7.32;;;4.20;;
71154;SDS011;59375;53.216;5.728;2022-09-29T10:26:31;7.95;;;4.38;;
71154;SDS011;59375;53.216;5.728;2022-09-29T10:29:02;4.95;;;3.05;;
71154;SDS011;59375;53.216;5.728;2022-09-29T10:31:42;5.10;;;2.80;;
71154;SDS011;59375;53.216;5.728;2022-09-29T10:36:53;5.40;;;3.22;;
71154;SDS011;59375;53.216;5.728;2022-09-29T10:42:15;4.93;;;2.50;;
71154;SDS011;59375;53.216;5.728;2022-09-29T10:44:53;4.47;;;2.60;;
71154;SDS011;59375;53.216;5.728;2022-09-29T10:47:25;4.30;;;2.47;;
71154;SDS011;59375;53.216;5.728;2022-09-29T10:50:12;5.30;;;2.50;;
71154;SDS011;59375;53.216;5.728;2022-09-29T10:52:55;4.13;;;2.50;;
71154;SDS011;59375;53.216;5.728;2022-09-29T10:57:53;4.70;;;2.40;;
71154;SDS011;59375;53.216;5.728;2022-09-29T11:00:26;5.00;;;1.90;;
71154;SDS011;59375;53.216;5.728;2022-09-29T11:03:45;2.75;;;1.70;;
71154;SDS011;59375;53.216;5.728;2022-09-29T11:05:51;3.50;;;1.80;;
71154;SDS011;59375;53.216;5.728;2022-09-29T11:08:25;3.80;;;1.90;;
71154;SDS011;59375;53.216;5.728;2022-09-29T11:13:33;3.20;;;1.90;;
71154;SDS011;59375;53.216;5.728;2022-09-29T11:16:11;4.55;;;1.95;;
71154;SDS011;59375;53.216;5.728;2022-09-29T11:18:39;4.55;;;2.00;;
71154;SDS011;59375;53.216;5.728;2022-09-29T11:26:37;5.88;;;2.30;;
71154;SDS011;59375;53.216;5.728;2022-09-29T11:29:22;4.78;;;2.13;;
71154;SDS011;59375;53.216;5.728;2022-09-29T11:34:42;5.78;;;2.10;;
71154;SDS011;59375;53.216;5.728;2022-09-29T11:37:30;4.07;;;1.95;;
71154;SDS011;59375;53.216;5.728;2022-09-29T11:48:50;4.15;;;1.98;;
71154;SDS011;59375;53.216;5.728;2022-09-29T11:54:24;3.80;;;2.00;;
71154;SDS011;59375;53.216;5.728;2022-09-29T11:57:13;4.03;;;1.90;;
71154;SDS011;59375;53.216;5.728;2022-09-29T12:00:00;3.45;;;1.77;;
71154;SDS011;59375;53.216;5.728;2022-09-29T12:13:35;1.83;;;1.25;;
71154;SDS011;59375;53.216;5.728;2022-09-29T12:16:05;2.00;;;1.17;;
71154;SDS011;59375;53.216;5.728;2022-09-29T12:18:54;2.95;;;1.38;;
71154;SDS011;59375;53.216;5.728;2022-09-29T12:21:33;1.45;;;1.15;;
71154;SDS011;59375;53.216;5.728;2022-09-29T12:24:06;2.22;;;1.48;;
71154;SDS011;59375;53.216;5.728;2022-09-29T12:26:53;2.35;;;1.30;;
71154;SDS011;59375;53.216;5.728;2022-09-29T12:31:46;2.33;;;1.20;;
71154;SDS011;59375;53.216;5.728;2022-09-29T12:34:16;2.13;;;1.17;;
71154;SDS011;59375;53.216;5.728;2022-09-29T12:37:03;2.67;;;1.00;;
71154;SDS011;59375;53.216;5.728;2022-09-29T12:39:39;0.90;;;0.90;;
71154;SDS011;59375;53.216;5.728;2022-09-29T12:44:42;3.00;;;1.00;;
71154;SDS011;59375;53.216;5.728;2022-09-29T12:47:21;1.95;;;0.98;;
71154;SDS011;59375;53.216;5.728;2022-09-29T12:55:23;1.13;;;1.00;;
71154;SDS011;59375;53.216;5.728;2022-09-29T12:57:55;2.25;;;0.90;;
71154;SDS011;59375;53.216;5.728;2022-09-29T13:00:24;2.35;;;1.10;;
71154;SDS011;59375;53.216;5.728;2022-09-29T13:08:24;1.23;;;0.90;;
71154;SDS011;59375;53.216;5.728;2022-09-29T13:11:15;1.60;;;1.20;;
71154;SDS011;59375;53.216;5.728;2022-09-29T13:22:53;1.42;;;1.10;;
71154;SDS011;59375;53.216;5.728;2022-09-29T13:25:35;1.55;;;1.00;;
71154;SDS011;59375;53.216;5.728;2022-09-29T13:28:31;0.80;;;0.80;;
71154;SDS011;59375;53.216;5.728;2022-09-29T13:31:02;1.30;;;1.00;;
71154;SDS011;59375;53.216;5.728;2022-09-29T13:33:30;4.35;;;1.08;;
71154;SDS011;59375;53.216;5.728;2022-09-29T13:35:57;0.93;;;0.80;;
71154;SDS011;59375;53.216;5.728;2022-09-29T13:38:24;2.10;;;1.20;;
71154;SDS011;59375;53.216;5.728;2022-09-29T13:49:28;2.15;;;0.90;;
71154;SDS011;59375;53.216;5.728;2022-09-29T13:51:56;1.63;;;0.88;;
71154;SDS011;59375;53.216;5.728;2022-09-29T13:54:31;2.40;;;0.97;;
71154;SDS011;59375;53.216;5.728;2022-09-29T14:00:03;1.27;;;0.95;;
71154;SDS011;59375;53.216;5.728;2022-09-29T14:02:34;1.13;;;0.80;;
71154;SDS011;59375;53.216;5.728;2022-09-29T14:05:03;2.17;;;1.00;;
71154;SDS011;59375;53.216;5.728;2022-09-29T14:07:34;1.27;;;0.90;;
71154;SDS011;59375;53.216;5.728;2022-09-29T14:10:04;2.13;;;1.00;;
71154;SDS011;59375;53.216;5.728;2022-09-29T14:13:00;1.35;;;0.93;;
71154;SDS011;59375;53.216;5.728;2022-09-29T14:15:35;3.70;;;1.10;;
71154;SDS011;59375;53.216;5.728;2022-09-29T14:18:05;1.92;;;1.20;;
71154;SDS011;59375;53.216;5.728;2022-09-29T14:21:02;1.30;;;0.88;;
71154;SDS011;59375;53.216;5.728;2022-09-29T14:32:09;1.88;;;0.73;;
71154;SDS011;59375;53.216;5.728;2022-09-29T14:34:42;1.33;;;0.90;;
71154;SDS011;59375;53.216;5.728;2022-09-29T14:37:13;2.75;;;1.15;;
71154;SDS011;59375;53.216;5.728;2022-09-29T14:39:43;1.30;;;0.90;;
71154;SDS011;59375;53.216;5.728;2022-09-29T14:42:30;1.63;;;1.00;;
71154;SDS011;59375;53.216;5.728;2022-09-29T14:44:56;3.03;;;1.25;;
71154;SDS011;59375;53.216;5.728;2022-09-29T14:47:45;2.58;;;1.10;;
71154;SDS011;59375;53.216;5.728;2022-09-29T14:56:37;2.75;;;1.30;;
71154;SDS011;59375;53.216;5.728;2022-09-29T15:02:20;1.53;;;1.10;;
71154;SDS011;59375;53.216;5.728;2022-09-29T15:04:50;3.70;;;1.30;;
71154;SDS011;59375;53.216;5.728;2022-09-29T15:07:17;2.55;;;1.30;;
71154;SDS011;59375;53.216;5.728;2022-09-29T15:09:46;3.00;;;1.27;;
71154;SDS011;59375;53.216;5.728;2022-09-29T15:12:21;3.97;;;1.20;;
71154;SDS011;59375;53.216;5.728;2022-09-29T15:14:50;1.90;;;1.02;;
71154;SDS011;59375;53.216;5.728;2022-09-29T15:20:16;3.00;;;1.10;;
71154;SDS011;59375;53.216;5.728;2022-09-29T15:25:43;3.50;;;1.10;;
71154;SDS011;59375;53.216;5.728;2022-09-29T15:28:17;2.55;;;1.10;;
71154;SDS011;59375;53.216;5.728;2022-09-29T15:30:51;2.22;;;1.40;;
71154;SDS011;59375;53.216;5.728;2022-09-29T15:33:22;1.30;;;0.88;;
71154;SDS011;59375;53.216;5.728;2022-09-29T15:36:02;1.83;;;1.00;;
71154;SDS011;59375;53.216;5.728;2022-09-29T15:38:31;1.70;;;1.02;;
71154;SDS011;59375;53.216;5.728;2022-09-29T15:41:03;3.83;;;1.17;;
71154;SDS011;59375;53.216;5.728;2022-09-29T15:43:40;1.02;;;0.90;;
71154;SDS011;59375;53.216;5.728;2022-09-29T15:46:35;2.22;;;0.98;;
71154;SDS011;59375;53.216;5.728;2022-09-29T15:49:19;3.08;;;1.13;;
71154;SDS011;59375;53.216;5.728;2022-09-29T15:52:03;2.50;;;1.08;;
71154;SDS011;59375;53.216;5.728;2022-09-29T15:54:33;2.65;;;1.20;;
71154;SDS011;59375;53.216;5.728;2022-09-29T15:57:03;2.53;;;1.20;;
71154;SDS011;59375;53.216;5.728;2022-09-29T15:59:50;2.88;;;1.25;;
71154;SDS011;59375;53.216;5.728;2022-09-29T16:02:28;2.88;;;1.10;;
71154;SDS011;59375;53.216;5.728;2022-09-29T16:05:04;3.42;;;1.05;;
71154;SDS011;59375;53.216;5.728;2022-09-29T16:07:37;1.42;;;0.98;;
71154;SDS011;59375;53.216;5.728;2022-09-29T16:10:07;1.75;;;1.05;;
71154;SDS011;59375;53.216;5.728;2022-09-29T16:12:44;1.80;;;0.95;;
71154;SDS011;59375;53.216;5.728;2022-09-29T16:15:27;1.50;;;0.88;;
71154;SDS011;59375;53.216;5.728;2022-09-29T16:20:48;1.38;;;1.05;;
71154;SDS011;59375;53.216;5.728;2022-09-29T16:23:16;1.10;;;1.00;;
71154;SDS011;59375;53.216;5.728;2022-09-29T16:28:32;1.42;;;0.82;;
71154;SDS011;59375;53.216;5.728;2022-09-29T16:31:08;2.67;;;0.90;;
71154;SDS011;59375;53.216;5.728;2022-09-29T16:33:43;1.83;;;0.95;;
71154;SDS011;59375;53.216;5.728;2022-09-29T16:36:12;1.15;;;0.95;;
71154;SDS011;59375;53.216;5.728;2022-09-29T16:38:45;4.40;;;1.02;;
71154;SDS011;59375;53.216;5.728;2022-09-29T16:41:16;1.88;;;1.00;;
71154;SDS011;59375;53.216;5.728;2022-09-29T16:44:03;3.70;;;1.00;;
71154;SDS011;59375;53.216;5.728;2022-09-29T16:46:40;1.60;;;1.00;;
71154;SDS011;59375;53.216;5.728;2022-09-29T16:49:22;0.80;;;0.80;;
71154;SDS011;59375;53.216;5.728;2022-09-29T16:52:01;7.45;;;5.03;;
71154;SDS011;59375;53.216;5.728;2022-09-29T16:57:37;2.17;;;1.40;;
71154;SDS011;59375;53.216;5.728;2022-09-29T17:01:02;3.03;;;1.25;;
71154;SDS011;59375;53.216;5.728;2022-09-29T17:03:28;2.97;;;1.30;;
71154;SDS011;59375;53.216;5.728;2022-09-29T17:05:55;2.88;;;1.10;;
71154;SDS011;59375;53.216;5.728;2022-09-29T17:08:25;3.28;;;1.20;;
71154;SDS011;59375;53.216;5.728;2022-09-29T17:10:54;4.00;;;1.30;;
71154;SDS011;59375;53.216;5.728;2022-09-29T17:13:44;2.63;;;1.27;;
71154;SDS011;59375;53.216;5.728;2022-09-29T17:16:11;3.42;;;1.40;;
71154;SDS011;59375;53.216;5.728;2022-09-29T17:18:49;1.92;;;1.30;;
71154;SDS011;59375;53.216;5.728;2022-09-29T17:21:41;2.45;;;1.50;;
71154;SDS011;59375;53.216;5.728;2022-09-29T17:24:07;3.38;;;1.50;;
71154;SDS011;59375;53.216;5.728;2022-09-29T17:26:39;2.30;;;1.40;;
71154;SDS011;59375;53.216;5.728;2022-09-29T17:29:26;2.25;;;1.50;;
71154;SDS011;59375;53.216;5.728;2022-09-29T17:31:52;1.73;;;1.30;;
71154;SDS011;59375;53.216;5.728;2022-09-29T17:34:18;2.78;;;1.50;;
71154;SDS011;59375;53.216;5.728;2022-09-29T17:36:52;3.08;;;1.35;;
71154;SDS011;59375;53.216;5.728;2022-09-29T17:39:22;2.20;;;1.30;;
71154;SDS011;59375;53.216;5.728;2022-09-29T17:41:48;4.18;;;1.40;;
71154;SDS011;59375;53.216;5.728;2022-09-29T17:44:14;3.55;;;1.60;;
71154;SDS011;59375;53.216;5.728;2022-09-29T17:46:40;3.88;;;1.80;;
71154;SDS011;59375;53.216;5.728;2022-09-29T17:49:10;4.03;;;2.00;;
71154;SDS011;59375;53.216;5.728;2022-09-29T17:51:36;105.60;;;81.38;;
71154;SDS011;59375;53.216;5.728;2022-09-29T17:54:02;9.57;;;6.47;;